createdAt,value
2019-02-15T00:01:24.712Z,102683.22
2019-02-15T00:03:58.042Z,102688.75
2019-02-15T00:06:31.333Z,102682.61
2019-02-15T00:09:05.591Z,102679.91
2019-02-15T00:11:38.942Z,102675.36
2019-02-15T00:14:12.232Z,102682.61
2019-02-15T00:16:45.552Z,102679.44
2019-02-15T00:19:29.473Z,102677.34
2019-02-15T00:22:02.801Z,102679.43
2019-02-15T00:24:36.094Z,102676.47
2019-02-15T00:27:09.418Z,102673.59
2019-02-15T00:29:42.748Z,102669.64
2019-02-15T00:32:16.116Z,102677.84
2019-02-15T00:34:49.423Z,102672.39
2019-02-15T00:37:22.744Z,102667.25
2019-02-15T00:39:56.037Z,102680.81
2019-02-15T00:42:29.335Z,102670.61
2019-02-15T00:45:02.640Z,102667.23
2019-02-15T00:47:46.583Z,102664.86
2019-02-15T00:50:39.585Z,102669.72
2019-02-15T00:53:14.522Z,102673.09
2019-02-15T00:55:52.127Z,102669.72
2019-02-15T00:58:29.580Z,102665.85
2019-02-15T01:01:04.520Z,102665.74
2019-02-15T01:03:51.416Z,102658.23
2019-02-15T01:06:29.072Z,102663.08
2019-02-15T01:09:12.767Z,102663.36
2019-02-15T01:11:47.693Z,102658.82
2019-02-15T01:14:21.030Z,102658.34
2019-02-15T01:16:54.340Z,102651.30
2019-02-15T01:19:27.665Z,102648.91
2019-02-15T01:22:00.965Z,102649.33
2019-02-15T01:24:34.285Z,102642.67
2019-02-15T01:27:09.218Z,102647.73
2019-02-15T01:29:56.235Z,102645.45
2019-02-15T01:32:31.154Z,102645.45
2019-02-15T01:35:15.431Z,102640.98
2019-02-15T01:37:59.318Z,102649.51
2019-02-15T01:40:34.272Z,102637.23
2019-02-15T01:43:11.640Z,102638.50
2019-02-15T01:45:46.602Z,102638.31
2019-02-15T01:48:19.884Z,102641.78
2019-02-15T01:50:53.272Z,102636.53
2019-02-15T01:53:26.542Z,102630.28
2019-02-15T01:55:59.855Z,102636.02
2019-02-15T01:58:33.138Z,102628.38
2019-02-15T02:01:07.309Z,102626.31
2019-02-15T02:03:40.585Z,102627.58
2019-02-15T02:06:13.881Z,102623.02
2019-02-15T02:08:47.229Z,102620.45
2019-02-15T02:11:20.533Z,102621.36
2019-02-15T02:13:53.822Z,102625.80
2019-02-15T02:16:27.114Z,102617.69
2019-02-15T02:19:00.403Z,102611.27
2019-02-15T02:21:33.697Z,102606.93
2019-02-15T02:24:06.991Z,102613.84
2019-02-15T02:26:40.356Z,102608.39
2019-02-15T02:29:13.631Z,102600.28
2019-02-15T02:31:46.946Z,102600.67
2019-02-15T02:34:20.214Z,102595.83
2019-02-15T02:36:54.679Z,102594.84
2019-02-15T02:39:27.949Z,102592.27
2019-02-15T02:42:01.313Z,102587.50
2019-02-15T02:44:34.616Z,102593.33
2019-02-15T02:47:07.930Z,102587.70
2019-02-15T02:49:41.215Z,102589.89
2019-02-15T02:52:14.521Z,102588.39
2019-02-15T02:54:47.800Z,102585.42
2019-02-15T02:57:21.086Z,102583.05
2019-02-15T02:59:54.362Z,102585.42
2019-02-15T03:02:27.662Z,102586.98
2019-02-15T03:05:00.954Z,102581.16
2019-02-15T03:07:34.252Z,102576.91
2019-02-15T03:10:07.800Z,102578.50
2019-02-15T03:12:41.111Z,102586.48
2019-02-15T03:15:14.392Z,102586.59
2019-02-15T03:17:49.268Z,102579.25
2019-02-15T03:20:30.860Z,102579.06
2019-02-15T03:22:57.563Z,102579.74
2019-02-15T03:25:30.830Z,102580.23
2019-02-15T03:28:04.123Z,102578.95
2019-02-15T03:30:37.410Z,102580.06
2019-02-15T03:33:10.710Z,102577.20
2019-02-15T03:35:45.691Z,102573.25
2019-02-15T03:38:20.642Z,102581.05
2019-02-15T03:40:55.199Z,102583.14
2019-02-15T03:43:28.496Z,102581.53
2019-02-15T03:46:02.306Z,102580.05
2019-02-15T03:48:35.627Z,102589.34
2019-02-15T03:51:08.902Z,102587.09
2019-02-15T03:53:42.243Z,102583.07
2019-02-15T03:56:15.539Z,102583.32
2019-02-15T03:58:48.826Z,102583.53
2019-02-15T04:01:22.744Z,102587.36
2019-02-15T04:03:56.107Z,102594.00
2019-02-15T04:06:29.402Z,102589.75
2019-02-15T04:09:02.754Z,102591.12
2019-02-15T04:11:36.048Z,102592.70
2019-02-15T04:14:09.351Z,102598.50
2019-02-15T04:16:43.290Z,102601.64
2019-02-15T04:19:16.587Z,102597.56
2019-02-15T04:21:49.884Z,102597.89
2019-02-15T04:24:24.145Z,102597.05
2019-02-15T04:26:57.441Z,102592.78
2019-02-15T04:29:30.772Z,102597.62
2019-02-15T04:32:04.063Z,102595.82
2019-02-15T04:34:37.379Z,102595.80
2019-02-15T04:37:10.687Z,102597.80
2019-02-15T04:39:43.975Z,102588.84
2019-02-15T04:42:17.264Z,102587.88
2019-02-15T04:44:50.548Z,102588.14
2019-02-15T04:47:23.675Z,102593.17
2019-02-15T04:49:56.949Z,102597.50
2019-02-15T04:52:30.258Z,102603.41
2019-02-15T04:55:04.079Z,102597.11
2019-02-15T04:57:37.382Z,102603.73
2019-02-15T05:00:10.835Z,102598.37
2019-02-15T05:02:44.203Z,102603.80
2019-02-15T05:05:17.473Z,102602.52
2019-02-15T05:07:50.792Z,102603.32
2019-02-15T05:10:24.046Z,102606.86
2019-02-15T05:12:57.365Z,102605.48
2019-02-15T05:15:30.636Z,102601.30
2019-02-15T05:18:03.954Z,102605.94
2019-02-15T05:20:37.214Z,102604.17
2019-02-15T05:23:10.517Z,102607.70
2019-02-15T05:25:43.878Z,102602.35
2019-02-15T05:28:17.157Z,102603.66
2019-02-15T05:30:50.440Z,102598.34
2019-02-15T05:33:23.756Z,102604.20
2019-02-15T05:35:57.054Z,102597.25
2019-02-15T05:38:30.357Z,102600.96
2019-02-15T05:41:03.668Z,102597.78
2019-02-15T05:43:36.986Z,102601.52
2019-02-15T05:46:10.337Z,102607.09
2019-02-15T05:48:43.654Z,102604.70
2019-02-15T05:51:16.939Z,102605.26
2019-02-15T05:53:50.250Z,102607.41
2019-02-15T05:56:23.559Z,102615.80
2019-02-15T05:58:56.869Z,102608.61
2019-02-15T06:01:30.208Z,102608.99
2019-02-15T06:04:03.521Z,102614.11
2019-02-15T06:06:36.779Z,102620.22
2019-02-15T06:09:10.083Z,102614.79
2019-02-15T06:11:44.997Z,102626.97
2019-02-15T06:14:18.335Z,102624.69
2019-02-15T06:16:51.618Z,102619.66
2019-02-15T06:19:25.522Z,102613.46
2019-02-15T06:21:58.770Z,102623.05
2019-02-15T06:24:32.079Z,102618.88
2019-02-15T06:27:05.385Z,102616.80
2019-02-15T06:29:38.678Z,102620.77
2019-02-15T06:32:11.968Z,102610.41
2019-02-15T06:34:45.265Z,102611.62
2019-02-15T06:37:18.550Z,102615.20
2019-02-15T06:39:51.869Z,102622.59
2019-02-15T06:42:25.135Z,102624.45
2019-02-15T06:44:58.451Z,102624.02
2019-02-15T06:47:32.325Z,102631.17
2019-02-15T06:50:07.420Z,102626.70
2019-02-15T06:52:40.688Z,102632.21
2019-02-15T06:55:13.998Z,102635.52
2019-02-15T06:57:47.303Z,102638.23
2019-02-15T07:00:30.751Z,102644.16
2019-02-15T07:03:05.669Z,102644.45
2019-02-15T07:05:38.993Z,102644.54
2019-02-15T07:08:12.112Z,102642.81
2019-02-15T07:10:45.408Z,102639.23
2019-02-15T07:13:18.699Z,102640.13
2019-02-15T07:15:52.006Z,102645.28
2019-02-15T07:18:25.276Z,102652.61
2019-02-15T07:20:58.577Z,102647.28
2019-02-15T07:23:33.509Z,102643.82
2019-02-15T07:26:06.812Z,102645.63
2019-02-15T07:28:40.115Z,102645.74
2019-02-15T07:31:13.429Z,102647.22
2019-02-15T07:33:46.710Z,102641.47
2019-02-15T07:36:20.007Z,102648.22
2019-02-15T07:38:53.302Z,102651.99
2019-02-15T07:41:26.591Z,102654.27
2019-02-15T07:43:59.894Z,102650.48
2019-02-15T07:46:33.173Z,102651.06
2019-02-15T07:49:06.482Z,102650.16
2019-02-15T07:51:39.763Z,102658.94
2019-02-15T07:54:13.062Z,102650.56
2019-02-15T07:56:47.393Z,102643.48
2019-02-15T07:59:20.689Z,102642.70
2019-02-15T08:02:01.668Z,102643.01
2019-02-15T08:04:29.864Z,102641.03
2019-02-15T08:07:03.229Z,102631.21
2019-02-15T08:09:36.518Z,102636.68
2019-02-15T08:12:09.784Z,102636.30
2019-02-15T08:14:43.084Z,102639.89
2019-02-15T08:17:16.367Z,102637.12
2019-02-15T08:19:49.650Z,102634.28
2019-02-15T08:22:23.514Z,102632.38
2019-02-15T08:24:56.883Z,102627.89
2019-02-15T08:27:31.474Z,102626.50
2019-02-15T08:30:07.382Z,102629.20
2019-02-15T08:32:40.738Z,102628.56
2019-02-15T08:35:14.032Z,102630.03
2019-02-15T08:37:47.333Z,102618.71
2019-02-15T08:40:20.635Z,102627.98
2019-02-15T08:42:55.966Z,102621.77
2019-02-15T08:45:29.383Z,102621.55
2019-02-15T08:48:02.502Z,102625.09
2019-02-15T08:50:35.798Z,102620.95
2019-02-15T08:53:09.100Z,102613.94
2019-02-15T08:55:42.470Z,102619.27
2019-02-15T08:58:15.828Z,102614.56
2019-02-15T09:00:49.144Z,102605.98
2019-02-15T09:03:23.477Z,102608.81
2019-02-15T09:05:56.773Z,102609.96
2019-02-15T09:08:30.216Z,102619.63
2019-02-15T09:11:03.536Z,102610.86
2019-02-15T09:13:36.838Z,102610.52
2019-02-15T09:16:10.740Z,102608.20
2019-02-15T09:18:44.086Z,102611.98
2019-02-15T09:21:17.396Z,102606.22
2019-02-15T09:23:52.216Z,102608.54
2019-02-15T09:26:25.538Z,102599.28
2019-02-15T09:29:00.460Z,102604.02
2019-02-15T09:31:33.770Z,102603.48
2019-02-15T09:34:07.057Z,102598.66
2019-02-15T09:36:41.415Z,102593.75
2019-02-15T09:39:14.725Z,102598.64
2019-02-15T09:41:48.091Z,102591.06
2019-02-15T09:44:21.386Z,102586.91
2019-02-15T09:46:54.754Z,102588.73
2019-02-15T09:49:28.057Z,102585.05
2019-02-15T09:52:01.342Z,102577.46
2019-02-15T09:54:34.628Z,102575.23
2019-02-15T09:57:07.930Z,102572.86
2019-02-15T09:59:41.200Z,102572.62
2019-02-15T10:02:14.526Z,102577.84
2019-02-15T10:04:48.092Z,102581.06
2019-02-15T10:07:21.474Z,102577.27
2019-02-15T10:09:54.792Z,102579.48
2019-02-15T10:12:28.119Z,102579.78
2019-02-15T10:15:01.413Z,102574.69
2019-02-15T10:17:34.741Z,102579.23
2019-02-15T10:20:09.577Z,102573.62
2019-02-15T10:22:42.911Z,102574.66
2019-02-15T10:25:17.710Z,102571.30
2019-02-15T10:27:51.046Z,102569.09
2019-02-15T10:30:24.447Z,102571.00
2019-02-15T10:32:57.744Z,102570.30
2019-02-15T10:35:31.037Z,102570.05
2019-02-15T10:38:04.457Z,102561.98
2019-02-15T10:40:37.768Z,102568.29
2019-02-15T10:43:11.074Z,102563.31
2019-02-15T10:45:44.457Z,102558.06
2019-02-15T10:48:18.956Z,102553.11
2019-02-15T10:50:52.286Z,102552.52
2019-02-15T10:53:25.577Z,102545.25
2019-02-15T10:55:58.899Z,102535.76
2019-02-15T10:58:32.195Z,102534.45
2019-02-15T11:01:05.501Z,102527.03
2019-02-15T11:03:38.857Z,102525.25
2019-02-15T11:06:12.160Z,102522.00
2019-02-15T11:08:45.439Z,102517.39
2019-02-15T11:11:18.766Z,102504.00
2019-02-15T11:13:52.083Z,102500.33
2019-02-15T11:16:25.391Z,102487.53
2019-02-15T11:18:58.670Z,102487.69
2019-02-15T11:21:31.986Z,102482.49
2019-02-15T11:24:05.379Z,102477.05
2019-02-15T11:26:38.688Z,102480.14
2019-02-15T11:29:11.999Z,102471.03
2019-02-15T11:31:45.288Z,102469.39
2019-02-15T11:34:18.559Z,102459.38
2019-02-15T11:36:51.867Z,102450.27
2019-02-15T11:39:25.156Z,102456.16
2019-02-15T11:41:58.552Z,102451.84
2019-02-15T11:44:31.827Z,102452.45
2019-02-15T11:47:05.214Z,102446.50
2019-02-15T11:49:38.478Z,102448.01
2019-02-15T11:52:11.819Z,102450.66
2019-02-15T11:54:45.102Z,102429.11
2019-02-15T11:57:18.468Z,102422.92
2019-02-15T11:59:51.775Z,102421.65
2019-02-15T12:02:25.084Z,102417.81
2019-02-15T12:04:58.381Z,102410.52
2019-02-15T12:07:31.673Z,102403.39
2019-02-15T12:10:08.052Z,102400.50
2019-02-15T12:12:41.458Z,102395.41
2019-02-15T12:15:14.752Z,102394.70
2019-02-15T12:17:48.152Z,102395.98
2019-02-15T12:20:21.445Z,102389.39
2019-02-15T12:22:54.829Z,102388.98
2019-02-15T12:25:28.122Z,102379.92
2019-02-15T12:28:01.449Z,102380.38
2019-02-15T12:30:34.874Z,102369.80
2019-02-15T12:33:08.172Z,102370.00
2019-02-15T12:35:41.491Z,102369.69
2019-02-15T12:38:14.802Z,102359.83
2019-02-15T12:40:48.096Z,102356.93
2019-02-15T12:43:21.408Z,102348.98
2019-02-15T12:45:54.714Z,102346.30
2019-02-15T12:48:28.031Z,102344.41
2019-02-15T12:51:01.370Z,102331.44
2019-02-15T12:53:34.621Z,102325.37
2019-02-15T12:56:07.923Z,102331.07
2019-02-15T12:58:41.234Z,102322.89
2019-02-15T13:01:14.533Z,102320.35
2019-02-15T13:03:48.098Z,102319.61
2019-02-15T13:06:28.357Z,102321.25
2019-02-15T13:08:56.366Z,102313.80
2019-02-15T13:11:29.655Z,102306.14
2019-02-15T13:14:02.989Z,102315.61
2019-02-15T13:16:36.278Z,102306.14
2019-02-15T13:19:09.589Z,102308.55
2019-02-15T13:21:42.935Z,102299.50
2019-02-15T13:24:16.305Z,102301.39
2019-02-15T13:26:49.683Z,102289.07
2019-02-15T13:29:23.010Z,102300.38
2019-02-15T13:31:56.361Z,102282.23
2019-02-15T13:34:30.155Z,102273.83
2019-02-15T13:37:03.503Z,102269.40
2019-02-15T13:39:36.804Z,102269.20
2019-02-15T13:42:10.103Z,102262.12
2019-02-15T13:44:43.410Z,102263.34
2019-02-15T13:47:16.700Z,102255.05
2019-02-15T13:49:50.041Z,102246.31
2019-02-15T13:52:23.348Z,102245.30
2019-02-15T13:54:56.640Z,102241.30
2019-02-15T13:57:30.039Z,102239.81
2019-02-15T14:00:03.502Z,102236.38
2019-02-15T14:02:36.815Z,102235.45
2019-02-15T14:05:11.548Z,102230.19
2019-02-15T14:07:44.905Z,102232.28
2019-02-15T14:10:18.210Z,102225.97
2019-02-15T14:12:51.534Z,102215.55
2019-02-15T14:15:24.923Z,102219.91
2019-02-15T14:17:59.378Z,102212.63
2019-02-15T14:20:32.634Z,102206.03
2019-02-15T14:23:06.028Z,102208.46
2019-02-15T14:25:39.334Z,102206.67
2019-02-15T14:28:12.630Z,102206.60
2019-02-15T14:30:45.926Z,102198.80
2019-02-15T14:33:19.226Z,102200.40
2019-02-15T14:35:52.545Z,102191.27
2019-02-15T14:38:25.893Z,102190.56
2019-02-15T14:40:59.184Z,102197.13
2019-02-15T14:43:32.487Z,102190.80
2019-02-15T14:46:05.779Z,102191.91
2019-02-15T14:48:39.106Z,102186.55
2019-02-15T14:51:12.430Z,102184.52
2019-02-15T14:53:45.756Z,102189.84
2019-02-15T14:56:19.054Z,102188.02
2019-02-15T14:58:52.398Z,102178.30
2019-02-15T15:01:25.677Z,102179.11
2019-02-15T15:03:59.003Z,102176.59
2019-02-15T15:06:32.322Z,102175.59
2019-02-15T15:09:06.392Z,102167.94
2019-02-15T15:11:39.712Z,102163.17
2019-02-15T15:14:13.059Z,102157.52
2019-02-15T15:16:46.381Z,102153.59
2019-02-15T15:19:19.695Z,102149.13
2019-02-15T15:21:53.022Z,102153.70
2019-02-15T15:24:28.391Z,102151.61
2019-02-15T15:27:01.358Z,102151.23
2019-02-15T15:29:34.731Z,102143.21
2019-02-15T15:32:08.074Z,102139.45
2019-02-15T15:34:41.472Z,102159.09
2019-02-15T15:37:16.765Z,102149.97
2019-02-15T15:39:49.770Z,102157.40
2019-02-15T15:42:23.076Z,102153.77
2019-02-15T15:44:56.393Z,102149.26
2019-02-15T15:47:29.679Z,102149.50
2019-02-15T15:50:03.007Z,102156.68
2019-02-15T15:52:36.301Z,102154.16
2019-02-15T15:55:11.779Z,102154.25
2019-02-15T15:57:45.118Z,102156.03
2019-02-15T16:00:18.458Z,102151.25
2019-02-15T16:02:51.767Z,102146.46
2019-02-15T16:05:25.091Z,102137.23
2019-02-15T16:07:59.471Z,102145.56
2019-02-15T16:10:32.793Z,102145.48
2019-02-15T16:13:06.107Z,102127.86
2019-02-15T16:15:39.414Z,102127.86
2019-02-15T16:18:12.727Z,102143.15
2019-02-15T16:20:46.038Z,102141.73
2019-02-15T16:23:19.354Z,102138.59
2019-02-15T16:25:52.689Z,102139.41
2019-02-15T16:28:26.076Z,102139.39
2019-02-15T16:30:59.493Z,102137.47
2019-02-15T16:33:32.799Z,102140.70
2019-02-15T16:36:06.140Z,102138.32
2019-02-15T16:38:39.406Z,102141.22
2019-02-15T16:41:12.719Z,102133.22
2019-02-15T16:43:46.000Z,102141.41
2019-02-15T16:46:19.312Z,102143.36
2019-02-15T16:48:52.594Z,102140.97
2019-02-15T16:51:26.009Z,102147.72
2019-02-15T16:53:59.303Z,102141.16
2019-02-15T16:56:32.642Z,102149.22
2019-02-15T16:59:05.946Z,102143.28
2019-02-15T17:01:40.716Z,102145.91
2019-02-15T17:04:14.020Z,102146.00
2019-02-15T17:06:48.156Z,102148.14
2019-02-15T17:09:22.041Z,102149.05
2019-02-15T17:11:55.379Z,102157.02
2019-02-15T17:14:28.734Z,102150.67
2019-02-15T17:17:02.105Z,102153.72
2019-02-15T17:19:35.433Z,102159.23
2019-02-15T17:22:08.755Z,102156.06
2019-02-15T17:24:42.075Z,102155.11
2019-02-15T17:27:15.493Z,102153.80
2019-02-15T17:29:48.812Z,102160.25
2019-02-15T17:32:22.083Z,102154.42
2019-02-15T17:34:55.444Z,102155.59
2019-02-15T17:37:28.745Z,102158.08
2019-02-15T17:40:02.052Z,102157.46
2019-02-15T17:42:35.360Z,102152.09
2019-02-15T17:45:10.719Z,102149.92
2019-02-15T17:47:44.071Z,102164.80
2019-02-15T17:50:17.386Z,102157.48
2019-02-15T17:52:50.699Z,102149.90
2019-02-15T17:55:24.084Z,102153.25
2019-02-15T17:57:57.404Z,102155.23
2019-02-15T18:00:31.821Z,102156.66
2019-02-15T18:03:05.117Z,102155.20
2019-02-15T18:05:38.459Z,102154.77
2019-02-15T18:08:11.742Z,102159.28
2019-02-15T18:10:45.055Z,102149.67
2019-02-15T18:13:18.437Z,102158.10
2019-02-15T18:15:51.765Z,102153.30
2019-02-15T18:18:25.122Z,102149.89
2019-02-15T18:20:58.462Z,102148.09
2019-02-15T18:23:31.781Z,102148.67
2019-02-15T18:26:05.104Z,102144.63
2019-02-15T18:28:38.411Z,102150.77
2019-02-15T18:31:11.736Z,102143.70
2019-02-15T18:33:45.247Z,102147.70
2019-02-15T18:36:18.559Z,102144.08
2019-02-15T18:38:51.868Z,102142.15
2019-02-15T18:41:25.227Z,102141.20
2019-02-15T18:43:58.555Z,102144.18
2019-02-15T18:46:31.902Z,102145.56
2019-02-15T18:49:05.185Z,102145.56
2019-02-15T18:51:38.499Z,102145.52
2019-02-15T18:54:11.819Z,102146.16
2019-02-15T18:56:45.149Z,102139.83
2019-02-15T18:59:18.463Z,102139.78
2019-02-15T19:01:51.766Z,102140.16
2019-02-15T19:04:25.102Z,102141.15
2019-02-15T19:06:58.456Z,102131.33
2019-02-15T19:09:31.857Z,102136.00
2019-02-15T19:12:05.171Z,102133.09
2019-02-15T19:14:38.492Z,102136.06
2019-02-15T19:17:11.886Z,102132.44
2019-02-15T19:19:45.261Z,102130.13
2019-02-15T19:22:18.651Z,102125.30
2019-02-15T19:24:51.949Z,102127.03
2019-02-15T19:27:25.320Z,102118.70
2019-02-15T19:29:58.610Z,102117.94
2019-02-15T19:32:31.981Z,102125.41
2019-02-15T19:35:06.723Z,102117.94
2019-02-15T19:37:40.067Z,102110.38
2019-02-15T19:40:16.223Z,102112.08
2019-02-15T19:42:52.269Z,102110.58
2019-02-15T19:45:25.595Z,102107.47
2019-02-15T19:47:58.911Z,102106.64
2019-02-15T19:50:32.235Z,102105.69
2019-02-15T19:53:05.537Z,102107.19
2019-02-15T19:55:38.875Z,102102.67
2019-02-15T19:58:12.186Z,102105.09
2019-02-15T20:00:45.516Z,102103.61
2019-02-15T20:03:18.826Z,102098.95
2019-02-15T20:05:52.129Z,102095.33
2019-02-15T20:08:25.432Z,102103.88
2019-02-15T20:10:58.795Z,102099.58
2019-02-15T20:13:32.087Z,102101.33
2019-02-15T20:16:05.461Z,102104.09
2019-02-15T20:18:38.764Z,102096.66
2019-02-15T20:21:12.065Z,102092.59
2019-02-15T20:23:45.354Z,102090.72
2019-02-15T20:26:18.690Z,102090.89
2019-02-15T20:28:51.980Z,102093.48
2019-02-15T20:31:25.323Z,102089.00
2019-02-15T20:33:58.628Z,102090.30
2019-02-15T20:39:13.527Z,102088.99
2019-02-15T20:41:46.968Z,102094.52
2019-02-15T20:44:20.227Z,102092.58
2019-02-15T20:46:53.601Z,102095.57
2019-02-15T20:49:26.920Z,102091.21
2019-02-15T20:52:00.213Z,102098.70
2019-02-15T20:54:33.495Z,102096.53
2019-02-15T20:57:06.802Z,102099.77
2019-02-15T20:59:40.396Z,102098.54
2019-02-15T21:02:14.400Z,102099.50
2019-02-15T21:04:49.435Z,102100.33
2019-02-15T21:07:22.738Z,102096.12
2019-02-15T21:09:56.102Z,102102.38
2019-02-15T21:12:29.394Z,102102.64
2019-02-15T21:15:02.696Z,102101.11
2019-02-15T21:17:36.073Z,102101.08
2019-02-15T21:20:11.322Z,102098.81
2019-02-15T21:22:44.602Z,102107.55
2019-02-15T21:25:18.191Z,102103.32
2019-02-15T21:27:51.483Z,102105.17
2019-02-15T21:30:24.800Z,102106.02
2019-02-15T21:32:58.084Z,102106.12
2019-02-15T21:35:31.405Z,102107.30
2019-02-15T21:38:04.922Z,102110.01
2019-02-15T21:40:38.252Z,102110.28
2019-02-15T21:43:11.623Z,102104.41
2019-02-15T21:45:47.752Z,102110.35
2019-02-15T21:48:41.979Z,102105.99
2019-02-15T21:51:15.376Z,102106.80
2019-02-15T21:53:48.658Z,102109.39
2019-02-15T21:56:22.049Z,102107.67
2019-02-15T21:58:55.486Z,102103.62
2019-02-15T22:01:28.874Z,102103.48
2019-02-15T22:04:02.146Z,102105.36
2019-02-15T22:06:35.458Z,102101.11
2019-02-15T22:09:09.020Z,102094.89
2019-02-15T22:11:42.826Z,102090.89
2019-02-15T22:14:16.178Z,102087.11
2019-02-15T22:16:49.508Z,102088.88
2019-02-15T22:19:22.784Z,102090.31
2019-02-15T22:21:56.086Z,102090.67
2019-02-15T22:24:30.409Z,102089.50
2019-02-15T22:27:03.744Z,102091.64
2019-02-15T22:29:37.023Z,102084.09
2019-02-15T22:32:10.348Z,102089.94
2019-02-15T22:34:43.630Z,102088.77
2019-02-15T22:37:16.957Z,102079.00
2019-02-15T22:39:50.244Z,102086.55
2019-02-15T22:42:23.565Z,102083.25
2019-02-15T22:44:56.847Z,102081.06
2019-02-15T22:47:30.140Z,102083.88
2019-02-15T22:50:03.424Z,102085.22
2019-02-15T22:52:36.713Z,102076.30
2019-02-15T22:55:10.005Z,102072.75
2019-02-15T22:57:43.305Z,102074.60
2019-02-15T23:00:33.181Z,102071.73
2019-02-15T23:03:06.495Z,102069.50
2019-02-15T23:05:39.760Z,102070.91
2019-02-15T23:08:13.073Z,102071.40
2019-02-15T23:10:46.360Z,102065.22
2019-02-15T23:13:19.784Z,102065.09
2019-02-15T23:15:53.078Z,102070.82
2019-02-15T23:18:26.440Z,102070.53
2019-02-15T23:20:59.732Z,102063.58
2019-02-15T23:23:33.028Z,102070.64
2019-02-15T23:26:06.322Z,102059.91
2019-02-15T23:28:40.839Z,102065.61
2019-02-15T23:31:14.171Z,102068.19
2019-02-15T23:33:47.477Z,102064.65
2019-02-15T23:36:21.984Z,102064.13
2019-02-15T23:38:55.292Z,102066.04
2019-02-15T23:41:28.572Z,102068.09
2019-02-15T23:44:01.879Z,102073.22
2019-02-15T23:46:35.169Z,102072.99
2019-02-15T23:49:08.468Z,102069.91
2019-02-15T23:51:41.777Z,102075.50
2019-02-15T23:54:15.095Z,102078.10
2019-02-15T23:56:48.400Z,102077.31
2019-02-15T23:59:21.715Z,102074.75
